MDT,Max TemperatureF,Mean TemperatureF,Min TemperatureF,Max Dew PointF,MeanDew PointF,Min DewpointF,Max Humidity, Mean Humidity, Min Humidity, Max Sea Level PressureIn, Mean Sea Level PressureIn, Min Sea Level PressureIn, Max VisibilityMiles, Mean VisibilityMiles, Min VisibilityMiles, Max Wind SpeedMPH, Mean Wind SpeedMPH, Max Gust SpeedMPH,PrecipitationIn, CloudCover, Events, WindDirDegrees
2013-5-1,50,33,16,24,18,12,92,58,24,30.56,30.48,30.35,10,10,10,22,9,29,0.00,2,,262
2013-5-2,64,48,32,27,21,16,61,39,17,30.53,30.37,30.19,10,10,10,24,14,30,0.00,0,,257
2013-5-3,54,46,38,43,38,27,92,65,38,30.34,30.26,30.17,10,10,8,25,16,31,0.03,7,Rain,330
2013-5-4,61,48,34,35,31,28,82,56,29,30.37,30.31,30.24,10,10,10,17,8,21,0.00,4,,29
2013-5-5,66,47,28,37,30,26,92,58,24,30.24,30.12,29.99,10,10,10,17,6,26,0.00,0,,147
2013-5-6,74,52,30,35,29,26,92,55,17,30.02,29.93,29.81,10,10,10,16,6,23,0.00,0,,165
2013-5-7,68,51,34,35,31,27,76,50,24,30.13,29.96,29.78,10,10,10,47,18,61,0.00,0,,357
2013-5-8,73,52,31,33,30,25,78,51,24,30.18,30.12,30.04,10,10,10,20,9,25,0.00,1,,132
2013-5-9,78,57,36,37,28,14,70,40,9,30.12,30.07,30.01,10,10,10,20,4,24,0.00,0,,328
2013-5-10,65,54,43,35,27,22,65,42,19,30.42,30.30,30.04,10,10,10,41,14,49,0.00,0,,35
2013-5-11,82,58,34,38,31,24,64,40,16,30.36,30.14,29.99,10,10,10,30,12,39,0.00,0,,215
2013-5-12,81,67,53,41,40,36,51,37,23,29.99,29.88,29.78,10,10,10,30,16,37,0.00,0,,251
2013-5-13,77,62,47,50,41,35,76,51,25,29.86,29.78,29.62,10,10,10,49,24,58,0.02,1,Rain,241
2013-5-14,62,50,38,35,26,19,70,45,19,30.00,29.89,29.70,10,10,10,49,21,59,0.00,0,,268
2013-5-15,65,50,35,29,24,20,70,45,19,30.04,29.96,29.87,10,10,10,20,10,24,0.00,1,,272
2013-5-16,66,53,40,42,33,28,74,52,30,29.89,29.85,29.80,10,10,10,30,10,35,0.02,4,Rain,289
2013-5-17,62,50,37,45,40,36,92,66,39,29.94,29.91,29.86,10,10,10,18,10,22,T,6,Rain,330
2013-5-18,62,55,47,46,44,41,93,71,49,29.99,29.95,29.91,10,10,5,18,6,22,0.05,7,Rain,303
2013-5-19,61,52,43,48,43,39,86,70,53,30.17,30.09,30.00,10,10,10,25,13,29,T,7,,324
2013-5-20,67,56,45,45,42,40,83,62,40,30.21,30.15,30.08,10,10,10,21,9,26,0.00,6,,348
2013-5-21,72,55,38,44,31,16,93,54,14,30.05,29.92,29.79,10,10,7,31,16,39,0.00,0,,123
2013-5-22,61,53,44,47,40,29,76,59,41,29.90,29.84,29.81,10,10,10,33,22,46,T,5,Rain,110
2013-5-23,55,48,41,46,41,37,100,78,55,29.96,29.89,29.81,10,8,2,28,10,36,0.30,8,Rain,290
2013-5-24,62,50,38,43,35,26,96,61,25,29.93,29.85,29.78,10,10,10,39,17,47,0.00,3,Rain,261
2013-5-25,63,50,36,31,28,26,70,49,27,29.98,29.92,29.88,10,10,10,28,15,35,0.00,1,,245
2013-5-26,71,52,33,42,32,25,82,50,18,29.99,29.92,29.85,10,10,10,24,7,32,0.00,2,,227
2013-5-27,63,55,46,46,43,38,100,71,42,29.87,29.81,29.75,10,9,5,17,6,24,0.35,5,Rain,240
2013-5-28,64,53,41,49,43,38,89,64,39,29.75,29.71,29.69,10,10,10,14,5,16,0.01,2,Rain,311
2013-5-29,66,56,45,47,43,38,93,65,37,29.72,29.67,29.63,10,10,10,22,6,25,T,4,Rain,197
2013-5-30,54,51,47,48,45,42,93,85,77,29.96,29.82,29.68,10,10,7,22,12,25,0.07,8,Rain,306
2013-5-31,57,52,46,46,43,39,93,74,55,30.27,30.11,29.97,10,10,9,25,13,31,0.05,8,Rain,303